createdAt,value
2023-03-06T00:00:24.984Z,20.38
2023-03-06T00:02:55.733Z,20.38
2023-03-06T00:05:27.291Z,20.40
2023-03-06T00:07:58.362Z,20.42
2023-03-06T00:10:31.244Z,20.43
2023-03-06T00:13:05.473Z,20.43
2023-03-06T00:15:36.709Z,20.43
2023-03-06T00:18:08.591Z,20.44
2023-03-06T00:20:40.648Z,20.45
2023-03-06T00:23:12.248Z,20.46
2023-03-06T00:25:45.828Z,20.47
2023-03-06T00:28:17.835Z,20.47
2023-03-06T00:30:48.597Z,20.46
2023-03-06T00:33:19.283Z,20.48
2023-03-06T00:35:50.102Z,20.48
2023-03-06T00:38:21.279Z,20.49
2023-03-06T00:40:51.971Z,20.50
2023-03-06T00:43:22.698Z,20.47
2023-03-06T00:45:53.544Z,20.53
2023-03-06T00:48:24.281Z,20.54
2023-03-06T00:50:55.162Z,20.54
2023-03-06T00:53:26.036Z,20.54
2023-03-06T00:55:56.833Z,20.56
2023-03-06T00:58:27.622Z,20.58
2023-03-06T01:00:58.298Z,20.55
2023-03-06T01:03:29.214Z,20.64
2023-03-06T01:06:00.059Z,20.66
2023-03-06T01:08:30.991Z,20.66
2023-03-06T01:11:01.676Z,20.65
2023-03-06T01:13:32.463Z,20.65
2023-03-06T01:16:10.857Z,20.59
2023-03-06T01:18:42.202Z,20.64
2023-03-06T01:21:13.585Z,20.66
2023-03-06T01:23:44.315Z,20.68
2023-03-06T01:26:15.186Z,20.68
2023-03-06T01:28:46.216Z,20.69
2023-03-06T01:31:16.933Z,20.69
2023-03-06T01:33:47.679Z,20.71
2023-03-06T01:36:18.417Z,20.72
2023-03-06T01:38:49.268Z,20.54
2023-03-06T01:41:21.529Z,20.68
2023-03-06T01:43:52.575Z,20.61
2023-03-06T01:46:33.421Z,20.74
2023-03-06T01:49:08.903Z,20.75
2023-03-06T01:51:45.016Z,20.76
2023-03-06T01:54:21.616Z,20.77
2023-03-06T01:56:55.459Z,20.77
2023-03-06T01:59:26.957Z,20.78
2023-03-06T02:01:59.628Z,20.79
2023-03-06T02:04:30.948Z,20.79
2023-03-06T02:07:05.870Z,20.77
2023-03-06T02:09:37.190Z,20.76
2023-03-06T02:12:12.763Z,20.77
2023-03-06T02:14:44.894Z,20.77
2023-03-06T02:17:18.157Z,20.77
2023-03-06T02:19:57.323Z,20.77
2023-03-06T02:22:34.544Z,20.77
2023-03-06T02:25:10.857Z,20.77
2023-03-06T02:27:42.142Z,20.79
2023-03-06T02:30:17.287Z,20.80
2023-03-06T02:32:48.396Z,20.77
2023-03-06T02:35:21.815Z,20.77
2023-03-06T02:37:53.087Z,20.75
2023-03-06T02:40:26.411Z,20.69
2023-03-06T02:42:59.103Z,20.71
2023-03-06T02:45:34.878Z,20.70
2023-03-06T02:48:06.719Z,20.69
2023-03-06T02:50:37.451Z,20.69
2023-03-06T02:53:09.996Z,20.68
2023-03-06T02:55:40.735Z,20.67
2023-03-06T02:58:11.856Z,20.66
2023-03-06T03:00:43.240Z,20.65
2023-03-06T03:03:14.176Z,20.62
2023-03-06T03:05:45.018Z,20.62
2023-03-06T03:08:16.081Z,20.58
2023-03-06T03:10:46.765Z,20.60
2023-03-06T03:13:17.412Z,20.56
2023-03-06T03:15:58.347Z,20.60
2023-03-06T03:18:29.240Z,20.61
2023-03-06T03:21:00.398Z,20.45
2023-03-06T03:23:31.148Z,20.57
2023-03-06T03:26:11.291Z,20.56
2023-03-06T03:28:42.329Z,20.49
2023-03-06T03:31:14.391Z,20.51
2023-03-06T03:33:45.205Z,20.49
2023-03-06T03:36:15.961Z,20.47
2023-03-06T03:38:49.179Z,20.43
2023-03-06T03:41:19.876Z,20.42
2023-03-06T03:43:50.543Z,20.39
2023-03-06T03:46:21.667Z,20.37
2023-03-06T03:48:52.538Z,20.35
2023-03-06T03:51:23.243Z,20.33
2023-03-06T03:53:55.933Z,20.32
2023-03-06T03:56:27.076Z,20.29
2023-03-06T03:58:57.938Z,20.28
2023-03-06T04:01:28.680Z,20.28
2023-03-06T04:03:59.413Z,20.26
2023-03-06T04:06:30.567Z,20.25
2023-03-06T04:09:01.307Z,20.22
2023-03-06T04:11:32.172Z,20.19
2023-03-06T04:14:03.435Z,20.17
2023-03-06T04:16:34.137Z,20.16
2023-03-06T04:19:05.128Z,20.14
2023-03-06T04:21:35.797Z,20.14
2023-03-06T04:24:07.655Z,20.15
2023-03-06T04:26:38.342Z,20.16
2023-03-06T04:29:09.559Z,20.18
2023-03-06T04:31:40.416Z,20.20
2023-03-06T04:34:11.144Z,20.18
2023-03-06T04:36:45.511Z,20.15
2023-03-06T04:39:16.498Z,20.12
2023-03-06T04:41:47.111Z,20.06
2023-03-06T04:44:17.886Z,20.06
2023-03-06T04:46:48.865Z,20.08
2023-03-06T04:49:19.656Z,20.09
2023-03-06T04:51:50.397Z,20.08
2023-03-06T04:54:21.135Z,20.07
2023-03-06T04:56:51.815Z,20.05
2023-03-06T04:59:22.598Z,20.04
2023-03-06T05:01:53.564Z,20.03
2023-03-06T05:04:24.288Z,20.01
2023-03-06T05:06:54.986Z,20.00
2023-03-06T05:09:25.783Z,20.00
2023-03-06T05:11:56.904Z,20.01
2023-03-06T05:14:30.200Z,20.01
2023-03-06T05:17:01.676Z,19.99
2023-03-06T05:19:32.392Z,20.01
2023-03-06T05:22:03.246Z,20.02
2023-03-06T05:24:33.959Z,20.02
2023-03-06T05:27:04.929Z,19.94
2023-03-06T05:29:35.618Z,19.95
2023-03-06T05:32:06.928Z,19.94
2023-03-06T05:34:38.147Z,19.93
2023-03-06T05:37:08.960Z,19.94
2023-03-06T05:39:39.729Z,19.90
2023-03-06T05:42:10.674Z,19.94
2023-03-06T05:44:42.264Z,19.76
2023-03-06T05:47:13.223Z,19.91
2023-03-06T05:49:44.186Z,19.91
2023-03-06T05:52:17.546Z,19.89
2023-03-06T05:54:53.101Z,19.87
2023-03-06T05:57:26.552Z,19.86
2023-03-06T05:59:57.504Z,19.86
2023-03-06T06:02:28.398Z,19.85
2023-03-06T06:04:59.183Z,19.82
2023-03-06T06:07:29.831Z,19.80
2023-03-06T06:10:02.395Z,19.78
2023-03-06T06:12:33.144Z,19.79
2023-03-06T06:15:04.116Z,19.78
2023-03-06T06:17:35.619Z,19.75
2023-03-06T06:20:07.788Z,19.72
2023-03-06T06:22:39.868Z,19.69
2023-03-06T06:25:11.462Z,19.48
2023-03-06T06:27:42.267Z,19.64
2023-03-06T06:30:14.780Z,19.58
2023-03-06T06:32:45.486Z,19.61
2023-03-06T06:35:16.265Z,19.57
2023-03-06T06:37:47.064Z,19.62
2023-03-06T06:40:18.812Z,19.61
2023-03-06T06:42:49.770Z,19.59
2023-03-06T06:45:20.795Z,19.57
2023-03-06T06:47:52.074Z,19.57
2023-03-06T06:50:23.211Z,19.57
2023-03-06T06:52:54.254Z,19.55
2023-03-06T06:55:24.997Z,19.54
2023-03-06T06:57:55.662Z,19.53
2023-03-06T07:00:27.633Z,19.51
2023-03-06T07:02:58.586Z,19.52
2023-03-06T07:05:29.482Z,19.52
2023-03-06T07:08:00.183Z,19.53
2023-03-06T07:10:31.055Z,19.53
2023-03-06T07:13:01.775Z,19.53
2023-03-06T07:15:33.964Z,19.53
2023-03-06T07:18:05.321Z,19.54
2023-03-06T07:20:36.661Z,19.55
2023-03-06T07:23:09.131Z,19.52
2023-03-06T07:25:39.941Z,19.57
2023-03-06T07:28:11.210Z,19.58
2023-03-06T07:30:43.348Z,19.58
2023-03-06T07:33:15.373Z,19.58
2023-03-06T07:35:46.681Z,19.59
2023-03-06T07:38:17.485Z,19.60
2023-03-06T07:40:53.421Z,19.60
2023-03-06T07:43:24.160Z,19.56
2023-03-06T07:46:00.477Z,19.63
2023-03-06T07:48:31.787Z,19.63
2023-03-06T07:51:04.735Z,19.63
2023-03-06T07:53:36.617Z,19.66
2023-03-06T07:56:09.556Z,19.69
2023-03-06T07:58:42.506Z,19.70
2023-03-06T08:01:15.891Z,19.70
2023-03-06T08:03:47.189Z,19.71
2023-03-06T08:06:20.561Z,19.75
2023-03-06T08:08:53.065Z,19.77
2023-03-06T08:11:26.397Z,19.79
2023-03-06T08:13:58.397Z,19.80
2023-03-06T08:16:31.463Z,19.81
2023-03-06T08:19:02.430Z,19.83
2023-03-06T08:21:33.188Z,19.84
2023-03-06T08:24:06.278Z,19.85
2023-03-06T08:26:38.213Z,19.85
2023-03-06T08:29:09.279Z,19.85
2023-03-06T08:31:42.399Z,19.81
2023-03-06T08:34:15.046Z,19.86
2023-03-06T08:36:46.188Z,19.85
2023-03-06T08:39:17.301Z,19.85
2023-03-06T08:41:48.113Z,19.85
2023-03-06T08:44:18.928Z,19.85
2023-03-06T08:46:49.750Z,19.86
2023-03-06T08:49:20.606Z,19.81
2023-03-06T08:51:51.541Z,19.84
2023-03-06T08:54:22.487Z,19.83
2023-03-06T08:56:53.387Z,19.83
2023-03-06T08:59:25.235Z,19.82
2023-03-06T09:01:56.068Z,19.81
2023-03-06T09:04:26.991Z,19.77
2023-03-06T09:06:57.813Z,19.78
2023-03-06T09:09:28.669Z,19.77
2023-03-06T09:11:59.397Z,19.76
2023-03-06T09:14:31.593Z,19.74
2023-03-06T09:17:02.519Z,19.72
2023-03-06T09:19:33.900Z,19.71
2023-03-06T09:22:04.687Z,19.70
2023-03-06T09:24:35.832Z,19.69
2023-03-06T09:27:06.792Z,19.66
2023-03-06T09:29:37.622Z,19.67
2023-03-06T09:32:11.167Z,19.65
2023-03-06T09:34:42.748Z,19.66
2023-03-06T09:37:13.969Z,19.67
2023-03-06T09:39:45.689Z,19.69
2023-03-06T09:42:21.266Z,19.68
2023-03-06T09:44:55.821Z,19.67
2023-03-06T09:47:42.448Z,19.66
2023-03-06T09:50:29.902Z,19.66
2023-03-06T09:53:16.416Z,19.65
2023-03-06T09:55:51.820Z,19.64
2023-03-06T09:58:25.101Z,19.62
2023-03-06T10:01:02.913Z,19.46
2023-03-06T10:03:37.657Z,19.61
2023-03-06T10:06:17.219Z,19.59
2023-03-06T10:08:53.751Z,19.57
2023-03-06T10:11:31.030Z,19.54
2023-03-06T10:14:15.273Z,19.38
2023-03-06T10:16:46.551Z,19.53
2023-03-06T10:19:20.234Z,19.51
2023-03-06T10:21:58.370Z,19.51
2023-03-06T10:24:45.307Z,19.50
2023-03-06T10:27:30.192Z,19.51
2023-03-06T10:30:06.504Z,19.39
2023-03-06T10:32:49.079Z,19.50
2023-03-06T10:35:23.490Z,19.50
2023-03-06T10:38:03.505Z,19.48
2023-03-06T10:40:44.224Z,19.51
2023-03-06T10:43:15.163Z,19.52
2023-03-06T10:45:54.136Z,19.52
2023-03-06T10:48:27.466Z,19.52
2023-03-06T10:51:18.474Z,19.51
2023-03-06T10:53:56.717Z,19.57
2023-03-06T10:56:33.537Z,19.58
2023-03-06T10:59:12.982Z,19.60
2023-03-06T11:01:45.674Z,19.60
2023-03-06T11:04:26.678Z,19.62
2023-03-06T11:07:19.069Z,19.64
2023-03-06T11:10:03.504Z,19.65
2023-03-06T11:12:36.128Z,19.65
2023-03-06T11:15:25.201Z,19.67
2023-03-06T11:18:03.025Z,19.69
2023-03-06T11:20:50.989Z,19.70
2023-03-06T11:23:30.560Z,19.71
2023-03-06T11:26:06.371Z,19.72
2023-03-06T11:28:43.266Z,19.72
2023-03-06T11:31:18.032Z,19.74
2023-03-06T11:33:55.091Z,19.75
2023-03-06T11:36:31.487Z,19.74
2023-03-06T11:39:04.637Z,19.74
2023-03-06T11:41:46.134Z,19.76
2023-03-06T11:44:24.753Z,19.73
2023-03-06T11:47:04.900Z,19.78
2023-03-06T11:49:45.463Z,19.77
2023-03-06T11:52:23.116Z,19.76
2023-03-06T11:54:58.578Z,19.76
2023-03-06T11:57:39.294Z,19.77
2023-03-06T12:00:30.704Z,19.76
2023-03-06T12:03:30.503Z,19.76
2023-03-06T12:06:07.262Z,19.74
2023-03-06T12:08:53.312Z,19.73
2023-03-06T12:11:30.701Z,19.72
2023-03-06T12:14:24.391Z,19.70
2023-03-06T12:17:14.625Z,19.69
2023-03-06T12:19:55.019Z,19.68
2023-03-06T12:22:36.278Z,19.68
2023-03-06T12:25:31.101Z,19.68
2023-03-06T12:28:26.140Z,19.67
2023-03-06T12:31:09.337Z,19.65
2023-03-06T12:33:50.201Z,19.63
2023-03-06T12:36:30.923Z,19.61
2023-03-06T12:39:10.616Z,19.59
2023-03-06T12:41:49.873Z,19.58
2023-03-06T12:44:43.601Z,19.59
2023-03-06T12:47:18.731Z,19.60
2023-03-06T12:49:55.963Z,19.60
2023-03-06T12:52:30.726Z,19.58
2023-03-06T12:55:05.996Z,19.56
2023-03-06T12:57:36.927Z,19.54
2023-03-06T13:00:14.188Z,19.54
2023-03-06T13:03:14.795Z,19.53
2023-03-06T13:06:06.862Z,19.50
2023-03-06T13:09:04.797Z,19.50
2023-03-06T13:11:54.858Z,19.50
2023-03-06T13:14:27.855Z,19.49
2023-03-06T13:17:38.103Z,19.46
2023-03-06T13:20:35.283Z,19.27
2023-03-06T13:23:41.819Z,19.42
2023-03-06T13:26:33.851Z,19.40
2023-03-06T13:29:24.661Z,19.38
2023-03-06T13:32:19.960Z,19.37
2023-03-06T13:34:51.994Z,19.35
2023-03-06T13:37:51.453Z,19.35
2023-03-06T13:40:38.160Z,19.33
2023-03-06T13:43:27.355Z,19.31
2023-03-06T13:46:15.525Z,19.30
2023-03-06T13:48:46.836Z,19.32
2023-03-06T13:51:26.699Z,19.34
2023-03-06T13:54:20.293Z,19.35
2023-03-06T13:57:15.740Z,19.36
2023-03-06T14:00:16.414Z,19.26
2023-03-06T14:03:01.222Z,19.37
2023-03-06T14:05:45.204Z,19.38
2023-03-06T14:08:18.690Z,19.39
2023-03-06T14:10:59.202Z,19.36
2023-03-06T14:13:45.345Z,19.40
2023-03-06T14:16:24.083Z,19.43
2023-03-06T14:18:57.016Z,19.44
2023-03-06T14:21:32.625Z,19.39
2023-03-06T14:24:06.040Z,19.44
2023-03-06T14:26:45.235Z,19.44
2023-03-06T14:29:24.672Z,19.48
2023-03-06T14:31:57.233Z,19.49
2023-03-06T14:34:29.901Z,19.50
2023-03-06T14:37:03.549Z,19.50
2023-03-06T14:39:38.341Z,19.51
2023-03-06T14:42:17.159Z,19.52
2023-03-06T14:44:49.222Z,19.54
2023-03-06T14:47:30.803Z,19.55
2023-03-06T14:50:26.817Z,19.56
2023-03-06T14:52:59.976Z,19.57
2023-03-06T14:55:33.570Z,19.59
2023-03-06T14:58:09.006Z,19.55
2023-03-06T15:00:44.757Z,19.59
2023-03-06T15:03:22.679Z,19.59
2023-03-06T15:05:54.786Z,19.58
2023-03-06T15:08:31.361Z,19.59
2023-03-06T15:11:04.832Z,19.58
2023-03-06T15:13:36.442Z,19.58
2023-03-06T15:16:10.128Z,19.57
2023-03-06T15:18:55.292Z,19.58
2023-03-06T15:21:28.641Z,19.59
2023-03-06T15:24:00.290Z,19.58
2023-03-06T15:26:34.892Z,19.56
2023-03-06T15:29:22.178Z,19.55
2023-03-06T15:31:53.218Z,19.57
2023-03-06T15:34:25.354Z,19.59
2023-03-06T15:36:58.832Z,19.58
2023-03-06T15:39:35.376Z,19.57
2023-03-06T15:42:18.270Z,19.57
2023-03-06T15:44:53.089Z,19.59
2023-03-06T15:47:25.115Z,19.58
2023-03-06T15:49:56.650Z,19.58
2023-03-06T15:52:27.581Z,19.58
2023-03-06T15:54:58.525Z,19.56
2023-03-06T15:57:31.190Z,19.54
2023-03-06T16:00:04.545Z,19.54
2023-03-06T16:02:36.019Z,19.60
2023-03-06T16:05:17.286Z,19.60
2023-03-06T16:07:48.430Z,19.62
2023-03-06T16:10:21.397Z,19.66
2023-03-06T16:12:55.639Z,19.67
2023-03-06T16:15:29.192Z,19.70
2023-03-06T16:18:01.317Z,19.70
2023-03-06T16:20:33.328Z,19.70
2023-03-06T16:23:10.611Z,19.70
2023-03-06T16:25:44.752Z,19.70
2023-03-06T16:28:18.182Z,19.71
2023-03-06T16:30:49.318Z,19.71
2023-03-06T16:33:20.520Z,19.71
2023-03-06T16:35:51.759Z,19.71
2023-03-06T16:38:22.630Z,19.71
2023-03-06T16:40:53.755Z,19.70
2023-03-06T16:43:24.803Z,19.69
2023-03-06T16:45:56.877Z,19.69
2023-03-06T16:48:27.983Z,19.70
2023-03-06T16:50:58.979Z,19.71
2023-03-06T16:53:30.018Z,19.72
2023-03-06T16:56:01.160Z,19.69
2023-03-06T16:58:32.338Z,19.67
2023-03-06T17:01:04.170Z,19.68
2023-03-06T17:03:35.516Z,19.69
2023-03-06T17:06:13.786Z,19.70
2023-03-06T17:08:45.338Z,19.67
2023-03-06T17:11:16.991Z,19.66
2023-03-06T17:13:48.309Z,19.66
2023-03-06T17:16:19.726Z,19.64
2023-03-06T17:18:51.005Z,19.62
2023-03-06T17:21:22.067Z,19.61
2023-03-06T17:23:52.881Z,19.61
2023-03-06T17:26:24.235Z,19.58
2023-03-06T17:28:56.320Z,19.65
2023-03-06T17:31:29.288Z,19.68
2023-03-06T17:34:00.849Z,19.70
2023-03-06T17:36:32.764Z,19.69
2023-03-06T17:39:04.924Z,19.78
2023-03-06T17:41:36.046Z,19.81
2023-03-06T17:44:07.648Z,19.83
2023-03-06T17:46:38.778Z,19.86
2023-03-06T17:49:10.018Z,19.91
2023-03-06T17:51:41.386Z,19.88
2023-03-06T17:54:12.604Z,19.94
2023-03-06T17:56:44.866Z,19.96
2023-03-06T17:59:15.980Z,19.98
2023-03-06T18:01:47.213Z,19.94
2023-03-06T18:04:18.378Z,19.97
2023-03-06T18:06:49.473Z,20.05
2023-03-06T18:09:20.565Z,20.06
2023-03-06T18:11:51.457Z,20.07
2023-03-06T18:14:22.379Z,20.11
2023-03-06T18:16:53.675Z,20.14
2023-03-06T18:19:24.571Z,20.15
2023-03-06T18:21:55.430Z,20.17
2023-03-06T18:24:26.428Z,20.18
2023-03-06T18:26:57.690Z,20.18
2023-03-06T18:29:28.740Z,20.16
2023-03-06T18:31:59.852Z,20.22
2023-03-06T18:34:30.927Z,20.23
2023-03-06T18:37:02.051Z,20.23
2023-03-06T18:39:33.520Z,20.23
2023-03-06T18:42:04.585Z,20.25
2023-03-06T18:44:35.640Z,20.25
2023-03-06T18:47:07.033Z,20.24
2023-03-06T18:49:40.108Z,20.25
2023-03-06T18:52:11.891Z,20.26
2023-03-06T18:54:43.068Z,20.28
2023-03-06T18:57:14.225Z,20.27
2023-03-06T18:59:45.602Z,20.14
2023-03-06T19:02:16.693Z,20.28
2023-03-06T19:04:47.918Z,20.28
2023-03-06T19:07:19.235Z,20.28
2023-03-06T19:09:52.263Z,20.27
2023-03-06T19:12:23.685Z,20.26
2023-03-06T19:14:54.815Z,20.25
2023-03-06T19:17:26.020Z,20.24
2023-03-06T19:19:57.446Z,20.25
2023-03-06T19:22:28.686Z,20.24
2023-03-06T19:25:00.187Z,20.24
2023-03-06T19:27:32.805Z,20.23
2023-03-06T19:30:04.762Z,20.24
2023-03-06T19:32:35.859Z,20.23
2023-03-06T19:35:08.044Z,20.23
2023-03-06T19:37:39.254Z,20.23
2023-03-06T19:40:12.908Z,20.23
2023-03-06T19:42:44.027Z,20.22
2023-03-06T19:45:15.765Z,20.23
2023-03-06T19:47:49.405Z,20.24
2023-03-06T19:50:20.863Z,20.24
2023-03-06T19:52:52.504Z,20.23
2023-03-06T19:55:24.940Z,20.21
2023-03-06T19:57:57.246Z,20.23
2023-03-06T20:00:30.996Z,20.24
2023-03-06T20:03:01.796Z,20.24
2023-03-06T20:05:32.981Z,20.24
2023-03-06T20:08:04.075Z,20.23
2023-03-06T20:10:37.906Z,20.23
2023-03-06T20:13:09.001Z,20.22
2023-03-06T20:15:40.424Z,20.23
2023-03-06T20:18:11.431Z,20.23
2023-03-06T20:20:42.400Z,20.22
2023-03-06T20:23:15.647Z,20.21
2023-03-06T20:25:47.646Z,20.17
2023-03-06T20:28:18.677Z,20.21
2023-03-06T20:30:52.247Z,20.21
2023-03-06T20:33:23.435Z,20.20
2023-03-06T20:35:54.823Z,20.20
2023-03-06T20:38:25.715Z,20.19
2023-03-06T20:40:58.088Z,20.13
2023-03-06T20:43:29.089Z,20.17
2023-03-06T20:46:02.269Z,20.15
2023-03-06T20:48:33.268Z,20.06
2023-03-06T20:51:06.385Z,20.14
2023-03-06T20:53:37.813Z,20.11
2023-03-06T20:56:11.922Z,20.09
2023-03-06T20:58:43.083Z,20.03
2023-03-06T21:01:20.857Z,20.07
2023-03-06T21:03:54.483Z,20.06
2023-03-06T21:06:26.106Z,20.07
2023-03-06T21:08:57.146Z,20.07
2023-03-06T21:11:29.122Z,20.05
2023-03-06T21:14:01.042Z,20.04
2023-03-06T21:16:32.714Z,20.04
2023-03-06T21:19:03.908Z,20.03
2023-03-06T21:21:36.148Z,19.98
2023-03-06T21:24:07.678Z,20.01
2023-03-06T21:26:38.695Z,20.02
2023-03-06T21:29:10.055Z,20.01
2023-03-06T21:31:41.351Z,20.03
2023-03-06T21:34:12.437Z,20.02
2023-03-06T21:36:43.722Z,19.99
2023-03-06T21:39:14.616Z,20.06
2023-03-06T21:41:45.388Z,20.08
2023-03-06T21:44:16.385Z,20.08
2023-03-06T21:46:47.146Z,20.08
2023-03-06T21:49:18.357Z,20.08
2023-03-06T21:51:49.452Z,20.08
2023-03-06T21:54:20.600Z,20.07
2023-03-06T21:56:51.508Z,20.07
2023-03-06T21:59:23.611Z,20.07
2023-03-06T22:01:54.472Z,20.06
2023-03-06T22:04:25.544Z,20.06
2023-03-06T22:06:56.672Z,20.05
2023-03-06T22:09:27.561Z,20.05
2023-03-06T22:11:58.786Z,20.04
2023-03-06T22:14:29.591Z,20.03
2023-03-06T22:17:00.788Z,20.03
2023-03-06T22:19:31.759Z,20.03
2023-03-06T22:22:03.902Z,20.02
2023-03-06T22:24:34.741Z,19.96
2023-03-06T22:27:06.203Z,20.01
2023-03-06T22:29:37.524Z,20.00
2023-03-06T22:32:09.328Z,19.99
2023-03-06T22:34:40.556Z,19.97
2023-03-06T22:37:11.427Z,19.96
2023-03-06T22:39:42.469Z,19.95
2023-03-06T22:42:13.469Z,19.94
2023-03-06T22:44:44.221Z,19.93
2023-03-06T22:47:15.210Z,19.92
2023-03-06T22:49:46.120Z,19.90
2023-03-06T22:52:19.651Z,19.89
2023-03-06T22:54:50.597Z,19.89
2023-03-06T22:57:21.724Z,19.89
2023-03-06T22:59:52.609Z,19.88
2023-03-06T23:02:23.469Z,19.86
2023-03-06T23:04:54.439Z,19.85
2023-03-06T23:07:25.290Z,19.78
2023-03-06T23:09:56.231Z,19.82
2023-03-06T23:12:27.184Z,19.80
2023-03-06T23:14:58.235Z,19.77
2023-03-06T23:17:29.299Z,19.75
2023-03-06T23:20:00.192Z,19.74
2023-03-06T23:22:31.063Z,19.72
2023-03-06T23:25:02.011Z,19.70
2023-03-06T23:27:33.458Z,19.68
2023-03-06T23:30:04.577Z,19.66
2023-03-06T23:32:36.156Z,19.65
2023-03-06T23:35:07.900Z,19.67
2023-03-06T23:37:38.753Z,19.58
2023-03-06T23:40:11.754Z,19.61
2023-03-06T23:42:42.580Z,19.63
2023-03-06T23:45:14.395Z,19.63
2023-03-06T23:47:45.070Z,19.62
2023-03-06T23:50:16.857Z,19.60
2023-03-06T23:52:47.729Z,19.58
2023-03-06T23:55:18.502Z,19.58
2023-03-06T23:57:49.800Z,19.58
